• Join FlightAware (Why Join?)
  • Login
  • US Flag 
10:37AM EDT


 

Airport Tracker/Info


-or-


 

Live Flight TrackerFlight Track Log ✈ N8421U ✈ 28-Oct-2013 ✈ KBGM - KVGC

Flight Track Log - Related Links

Times and Time Zones

All times are in EDT time to prevent confusion due to time zone crossing. See the N8421U flight status page for this flight to view local times or setup timezone preferences in your user account.

Time Position Orientation Groundspeed Altitude Reporting Facility
EDT Latitude Longitude Course Direction KTS MPH feet Rate Location/Type
02:25PM 42.2258 -75.9756 337° Northwest 234 269 2,400  Level Boston Center
02:26PM 42.2519 -75.9906 337° Northwest 99 114 2,700 240 Climbing Boston Center
02:27PM 42.2767 -75.9850 North 92 106 2,900  Climbing Boston Center
02:28PM 42.3025 -75.9803 North 93 107 2,700 -60 Descending Boston Center
02:29PM 42.3283 -75.9775 North 93 107 2,800 120 Climbing Boston Center
02:30PM 42.3539 -75.9772 360° North 92 106 3,000 240 Climbing Boston Center
02:31PM 42.3794 -75.9772 360° North 92 106 3,300 120 Climbing Boston Center
02:32PM 42.4097 -75.9817 354° North 91 105 3,300 -60 Level Boston Center
02:33PM 42.4322 -75.9919 341° North 92 106 3,200 -60 Descending Boston Center
02:34PM 42.4581 -75.9972 351° North 94 108 3,200  Level Boston Center
02:35PM 42.4881 -75.9986 358° North 92 106 3,200  Level Boston Center
02:36PM 42.5133 -75.9997 358° North 91 105 3,300 60 Climbing Boston Center
02:37PM 42.5414 -76.0000 360° North 95 109 3,400 60 Climbing Boston Center
02:38PM 42.5686 -76.0033 355° North 97 112 3,500 60 Climbing Boston Center
02:39PM 42.5939 -76.0050 357° North 95 109 3,600 120 Climbing Boston Center
02:40PM 42.6033 -76.0044 North 96 110 3,700 180 Climbing Boston Center
02:40PM 42.6186 -76.0067 354° North 92 106 3,800  Climbing Boston Center
02:41PM 42.6286 -76.0064 North 93 107 3,700 -240 Descending Boston Center
02:41PM 42.6444 -76.0092 353° North 91 105 3,600 -120 Descending Boston Center
02:42PM 42.6533 -76.0114 350° North 94 108 3,600 180 Level Boston Center
02:42PM 42.6700 -76.0128 356° North 92 106 3,800  Climbing Boston Center
02:43PM 42.6803 -76.0167 344° North 96 110 3,600 -300 Descending Boston Center
02:44PM 42.7072 -76.0222 351° North 98 113 3,500 -180 Descending Boston Center
02:45PM 42.7233 -76.0192 North 95 109 3,300 -240 Descending Boston Center
02:45PM 42.7344 -76.0250 339° North 99 114 3,300  Level Boston Center
02:46PM 42.7544 -76.0247 North 95 109 3,300  Level Boston Center
02:46PM 42.7633 -76.0311 332° Northwest 96 110 3,300 -240 Level Boston Center
02:47PM 42.7836 -76.0364 349° North 99 114 3,100 -360 Descending Boston Center
02:47PM 42.7878 -76.0386 339° North 93 107 3,000 -480 Descending Boston Center
02:48PM 42.8108 -76.0533 335° Northwest 103 119 2,600 -420 Descending Boston Center
02:48PM 42.8122 -76.0464 75° East 90 104 2,600 -540 Level Boston Center
02:49PM 42.8336 -76.0650 327° Northwest 98 113 2,100 -600 Descending Boston Center
02:49PM 42.8361 -76.0683 316° Northwest 114 131 2,000 -300 Descending Boston Center
02:50PM 42.8558 -76.0672 North 92 106 1,800 -240 Descending Boston Center
02:50PM 42.8642 -76.0683 354° North 94 108 1,700 -120 Descending Boston Center
02:51PM 42.8767 -76.0689 358° North 89 102 1,700 60 Level Boston Center
02:52PM 42.8856 -76.0808 315° West 70 81 1,800 180 Climbing Boston Center
02:52PM 42.8878 -76.0747 64° Northeast 78 90 2,000 660 Climbing Boston Center
02:53PM 42.8881 -76.0408 89° East 94 108 2,600 540 Climbing Boston Center
02:53PM 42.8894 -76.0406 North 89 102 2,600 420 Level Boston Center
02:54PM 42.8869 -76.0086 96° East 98 113 3,000 480 Climbing Boston Center
02:54PM 42.8897 -75.9972 72° East 92 106 3,100 240 Climbing Boston Center
02:55PM 42.8894 -75.9686 91° East 104 120 3,300 180 Climbing Boston Center
02:55PM 42.8922 -75.9614 62° Northeast 94 108 3,300 60 Level Boston Center
02:56PM 42.8872 -75.9303 102° East 106 122 3,400 180 Climbing Boston Center
02:56PM 42.8919 -75.9206 56° Northeast 100 115 3,500 180 Climbing Boston Center
02:57PM 42.8858 -75.8892 105° East 109 125 3,600 60 Climbing Boston Center
02:57PM 42.8839 -75.8744 100° East 111 128 3,600  Level Boston Center